HRYR

Kigali International Airport

Kigali, Rwanda
METAR HRYR 162100Z 35005KT 9999 FEW026 18/15 Q1020 NOSIG
Observed Flight Rules
Dec-16 @ 21:00 UTC (6 hours ago) Visual Flight Rules
Wind Visibility Clouds
350° at 5 knots 10,000+ meters
  • Few at 2,600' AGL
Temperatures Readings
Current 18°C / 64°F
Dewpoint 15°C / 59°F
Humidity 83%
Altimeter 30.12" Hg
Pressure 1020 hPa
Elevation 1497
METAR HRYR 162100Z 35005KT 9999 FEW026 18/15 Q1020 NOSIG
Observed Flight Rules
Dec-16 @ 21:00 UTC
(6 hours ago)
VFR
Wind Visibility
350° at 5 knots 10,000+ meters
Clouds
  • Few at 2,600' AGL
Temperature Dewpoint
18°C / 64°F 15°C / 59°F
Humidity Altimeter Pressure
83% 30.12" Hg 1020 hPa